الصفحة الرئيسية
METAR-TAF:

METAR-TAF

مطار :

جزيرة كريسماس, أستراليا

دائرة عرض: 10-26S, خط طول: 105-41E, ارتفاع: 279 متر

مراقبة الطقس الحالي

تاريخ ووقت الإصدار 35 دقيقة قبل الساعة 09:00UTC
ريح 8 عقدة من الجنوب الشرقي
درجة الحرارة 24°درجة مئوية
الرطوبة 100%
ضغط 1011 hPa
الرؤية 10 كم أو أكثر
غيوم مفككة على ارتفاع 700 قدم
ملبد بالغيوم على ارتفاع 1200 قدم

METAR: YPXM 260900Z AUTO 13008KT 9999 // BKN007 OVC012 24/24 Q1011

زمن: 16:35 (09:35 UTC)

توقعات

تاريخ ووقت الإصدار 4ساعات و 27 دقيقة قبل الساعة 05:08UTC
التوقعات صالحة من26 الساعة 05 UTC إلى 27 الساعة 06 UTC
ريح 8 عقدة من الجنوب الشرقي
الرؤية 10 كم أو أكثر
غيوم مفككة على ارتفاع 300 قدم
زخات من الأمطار الخفيفة
من 26 الساعة 0900 UTC
ريح 8 عقدة من الجنوب الشرقي
الرؤية 10 كم أو أكثر
غيوم مفككة على ارتفاع 600 قدم
زخات من الأمطار الخفيفة
مؤقت
من 26 الساعة 05 UTC إلى 26 الساعة 15 UTC
الرؤية: 2000 متر
غيوم مفككة على ارتفاع 200 قدم
زخات من المطر

TAF: YPXM 260508Z 2605/2706 13008KT 9999 -SHRA BKN003 FM260900 13008KT 9999 -SHRA BKN006 TEMPO 2605/2615 2000 SHRA BKN002

أرصاد الطقس والتوقعات من أكثر من 4000 مطار (تقارير الطقس للمطار METAR والتنبؤ بالطقس بالمطارTAF).

المحطات المتاحة هي النقط الصفراء والحمراء على الخريطة.

حرك المؤشر فوق النقطة لمعرفة اسم المحطة.

ثم انقر لمعرفة أرصاد وتوقعات الطقس.

لتغيير الخارطة: اضغط على الأزرار الخضراء مع رمز الصليب الأسود للتكبير. على الزر الأخضر مع شرطة للتصغير، أو على الأسهم الخضراء للخرائط المجاورة.


METAR-TAF: